createdAt,value
2022-09-21T00:01:31.876Z,90.10
2022-09-21T00:04:03.626Z,90.00
2022-09-21T00:06:35.285Z,90.10
2022-09-21T00:09:05.381Z,90.00
2022-09-21T00:11:33.906Z,90.10
2022-09-21T00:14:07.226Z,90.10
2022-09-21T00:16:34.981Z,90.20
2022-09-21T00:19:01.962Z,90.30
2022-09-21T00:21:34.163Z,90.30
2022-09-21T00:24:03.192Z,90.30
2022-09-21T00:26:30.564Z,90.40
2022-09-21T00:29:00.106Z,90.40
2022-09-21T00:31:28.331Z,90.50
2022-09-21T00:33:55.259Z,90.60
2022-09-21T00:36:24.466Z,90.50
2022-09-21T00:38:53.966Z,90.70
2022-09-21T00:41:21.415Z,90.70
2022-09-21T00:44:09.894Z,90.60
2022-09-21T00:46:39.507Z,90.80
2022-09-21T00:49:07.367Z,90.80
2022-09-21T00:51:35.560Z,91.00
2022-09-21T00:54:12.943Z,91.10
2022-09-21T00:56:39.809Z,91.40
2022-09-21T00:59:07.889Z,91.20
2022-09-21T01:01:34.838Z,91.10
2022-09-21T01:04:05.610Z,91.20
2022-09-21T01:06:35.661Z,91.20
2022-09-21T01:09:04.700Z,91.40
2022-09-21T01:11:57.070Z,91.20
2022-09-21T01:14:29.725Z,91.30
2022-09-21T01:17:10.967Z,91.40
2022-09-21T01:19:53.540Z,91.60
2022-09-21T01:22:45.192Z,91.70
2022-09-21T01:25:41.154Z,92.00
2022-09-21T01:28:21.497Z,92.00
2022-09-21T01:30:53.498Z,92.10
2022-09-21T01:33:32.265Z,92.10
2022-09-21T01:36:06.175Z,92.10
2022-09-21T01:38:40.455Z,92.20
2022-09-21T01:41:09.504Z,92.50
2022-09-21T01:43:53.127Z,92.50
2022-09-21T01:46:22.596Z,92.40
2022-09-21T01:48:57.100Z,92.70
2022-09-21T01:51:28.681Z,92.70
2022-09-21T01:54:14.175Z,92.70
2022-09-21T01:56:49.243Z,92.80
2022-09-21T01:59:43.315Z,93.00
2022-09-21T02:02:15.560Z,93.10
2022-09-21T02:04:42.853Z,93.10
2022-09-21T02:07:15.679Z,93.10
2022-09-21T02:09:42.547Z,93.20
2022-09-21T02:12:09.832Z,93.30
2022-09-21T02:14:38.439Z,93.30
2022-09-21T02:17:10.326Z,93.40
2022-09-21T02:19:44.318Z,93.50
2022-09-21T02:22:31.949Z,93.70
2022-09-21T02:25:15.613Z,93.90
2022-09-21T02:27:58.122Z,93.90
2022-09-21T02:30:26.664Z,93.90
2022-09-21T02:33:02.291Z,93.80
2022-09-21T02:35:37.585Z,94.20
2022-09-21T02:38:31.958Z,94.40
2022-09-21T02:41:14.434Z,94.60
2022-09-21T02:44:12.780Z,94.80
2022-09-21T02:46:54.907Z,95.00
2022-09-21T02:49:35.926Z,95.40
2022-09-21T02:52:11.435Z,95.20
2022-09-21T02:54:40.792Z,95.40
2022-09-21T02:57:12.988Z,95.30
2022-09-21T02:59:40.634Z,95.40
2022-09-21T03:02:09.662Z,95.50
2022-09-21T03:04:36.902Z,95.60
2022-09-21T03:07:03.837Z,95.70
2022-09-21T03:09:30.590Z,95.60
2022-09-21T03:11:59.756Z,95.90
2022-09-21T03:14:28.970Z,95.70
2022-09-21T03:16:55.850Z,96.00
2022-09-21T03:19:22.654Z,96.20
2022-09-21T03:21:49.386Z,96.10
2022-09-21T03:24:36.113Z,96.20
2022-09-21T03:27:03.295Z,96.40
2022-09-21T03:29:30.091Z,96.50
2022-09-21T03:31:56.856Z,96.50
2022-09-21T03:34:28.376Z,96.30
2022-09-21T03:36:57.314Z,95.90
2022-09-21T03:39:24.068Z,95.70
2022-09-21T03:41:50.813Z,95.70
2022-09-21T03:44:17.717Z,95.50
2022-09-21T03:46:44.633Z,95.40
2022-09-21T03:49:11.377Z,95.40
2022-09-21T03:51:39.465Z,95.40
2022-09-21T03:54:06.224Z,95.40
2022-09-21T03:56:37.669Z,95.50
2022-09-21T03:59:04.778Z,95.60
2022-09-21T04:01:32.852Z,95.70
2022-09-21T04:04:02.082Z,95.80
2022-09-21T04:06:29.211Z,95.90
2022-09-21T04:08:56.231Z,96.00
2022-09-21T04:11:25.321Z,96.10
2022-09-21T04:13:56.858Z,95.90
2022-09-21T04:16:27.492Z,95.70
2022-09-21T04:18:54.559Z,95.60
2022-09-21T04:21:22.354Z,95.70
2022-09-21T04:23:49.896Z,95.70
2022-09-21T04:26:28.833Z,95.80
2022-09-21T04:28:55.999Z,95.80
2022-09-21T04:31:24.397Z,95.90
2022-09-21T04:33:53.295Z,96.10
2022-09-21T04:36:24.018Z,96.20
2022-09-21T04:38:51.444Z,96.50
2022-09-21T04:41:18.639Z,96.40
2022-09-21T04:43:47.433Z,96.40
2022-09-21T04:46:16.649Z,96.60
2022-09-21T04:48:44.208Z,96.70
2022-09-21T04:51:14.767Z,96.80
2022-09-21T04:53:43.994Z,96.90
2022-09-21T04:56:16.821Z,97.10
2022-09-21T04:58:44.274Z,96.90
2022-09-21T05:01:11.985Z,97.20
2022-09-21T05:03:38.982Z,97.00
2022-09-21T05:06:06.332Z,96.90
2022-09-21T05:08:51.638Z,97.00
2022-09-21T05:11:22.806Z,96.90
2022-09-21T05:13:49.532Z,97.00
2022-09-21T05:16:17.875Z,96.90
2022-09-21T05:18:45.791Z,96.80
2022-09-21T05:21:15.808Z,96.80
2022-09-21T05:23:42.671Z,96.90
2022-09-21T05:26:13.899Z,97.00
2022-09-21T05:28:41.246Z,97.10
2022-09-21T05:31:33.183Z,97.20
2022-09-21T05:34:05.987Z,97.30
2022-09-21T05:36:57.228Z,97.20
2022-09-21T05:39:24.496Z,97.10
2022-09-21T05:41:51.692Z,97.00
2022-09-21T05:44:18.682Z,96.90
2022-09-21T05:47:04.171Z,96.80
2022-09-21T05:50:02.414Z,96.50
2022-09-21T05:52:52.928Z,96.20
2022-09-21T05:56:00.845Z,96.00
2022-09-21T05:58:33.547Z,95.70
2022-09-21T06:01:00.310Z,95.10
2022-09-21T06:03:29.842Z,94.60
2022-09-21T06:05:57.708Z,94.20
2022-09-21T06:08:25.356Z,93.70
2022-09-21T06:10:52.674Z,93.60
2022-09-21T06:13:19.682Z,93.30
2022-09-21T06:15:49.586Z,93.00
2022-09-21T06:18:18.196Z,92.70
2022-09-21T06:20:45.619Z,92.60
2022-09-21T06:23:14.198Z,91.70
2022-09-21T06:25:43.403Z,90.90
2022-09-21T06:28:12.880Z,90.10
2022-09-21T06:30:42.440Z,89.30
2022-09-21T06:33:09.780Z,87.30
2022-09-21T06:35:40.373Z,86.40
2022-09-21T06:38:08.222Z,85.10
2022-09-21T06:40:37.299Z,83.30
2022-09-21T06:43:05.303Z,83.40
2022-09-21T06:45:34.448Z,82.90
2022-09-21T06:48:01.533Z,81.60
2022-09-21T06:50:28.379Z,80.90
2022-09-21T06:52:55.222Z,80.80
2022-09-21T06:55:22.187Z,80.00
2022-09-21T06:57:51.038Z,79.60
2022-09-21T07:00:18.220Z,79.00
2022-09-21T07:02:48.356Z,78.70
2022-09-21T07:05:15.179Z,78.80
2022-09-21T07:07:44.365Z,77.70
2022-09-21T07:10:18.487Z,77.70
2022-09-21T07:12:51.657Z,77.00
2022-09-21T07:15:19.479Z,76.10
2022-09-21T07:17:51.730Z,76.00
2022-09-21T07:20:18.947Z,75.70
2022-09-21T07:22:45.781Z,75.30
2022-09-21T07:25:12.527Z,75.80
2022-09-21T07:27:39.429Z,75.60
2022-09-21T07:30:07.754Z,74.80
2022-09-21T07:32:35.129Z,75.10
2022-09-21T07:35:06.799Z,74.90
2022-09-21T07:37:33.667Z,74.60
2022-09-21T07:40:05.451Z,74.50
2022-09-21T07:42:32.293Z,73.70
2022-09-21T07:45:04.875Z,73.90
2022-09-21T07:47:32.129Z,72.40
2022-09-21T07:50:01.319Z,72.10
2022-09-21T07:52:28.536Z,72.00
2022-09-21T07:54:55.381Z,71.40
2022-09-21T07:57:40.509Z,70.60
2022-09-21T08:00:09.231Z,70.60
2022-09-21T08:02:36.220Z,70.10
2022-09-21T08:05:03.257Z,68.70
2022-09-21T08:07:30.004Z,67.10
2022-09-21T08:09:56.839Z,66.90
2022-09-21T08:12:26.051Z,66.30
2022-09-21T08:14:52.798Z,66.30
2022-09-21T08:17:19.710Z,65.50
2022-09-21T08:19:47.107Z,65.10
2022-09-21T08:22:14.180Z,65.20
2022-09-21T08:24:44.259Z,64.30
2022-09-21T08:27:11.543Z,63.90
2022-09-21T08:29:41.127Z,62.60
2022-09-21T08:32:13.460Z,62.40
2022-09-21T08:34:52.106Z,62.20
2022-09-21T08:37:22.395Z,61.70
2022-09-21T08:39:51.251Z,60.40
2022-09-21T08:42:39.946Z,59.90
2022-09-21T08:45:15.264Z,59.40
2022-09-21T08:47:43.980Z,60.10
2022-09-21T08:50:23.624Z,59.00
2022-09-21T08:53:00.915Z,57.90
2022-09-21T08:55:27.720Z,58.30
2022-09-21T08:57:54.734Z,57.60
2022-09-21T09:00:21.931Z,56.70
2022-09-21T09:03:08.850Z,56.30
2022-09-21T09:05:44.486Z,55.40
2022-09-21T09:08:45.558Z,55.60
2022-09-21T09:11:35.726Z,54.30
2022-09-21T09:14:14.799Z,54.60
2022-09-21T09:17:04.980Z,54.50
2022-09-21T09:19:44.348Z,55.50
2022-09-21T09:22:15.807Z,56.20
2022-09-21T09:24:49.871Z,57.10
2022-09-21T09:27:26.274Z,58.00
2022-09-21T09:30:03.542Z,58.50
2022-09-21T09:32:47.326Z,58.50
2022-09-21T09:35:26.363Z,58.80
2022-09-21T09:38:03.809Z,59.70
2022-09-21T09:40:51.156Z,59.50
2022-09-21T09:43:36.346Z,60.50
2022-09-21T09:46:29.575Z,61.70
2022-09-21T09:49:08.230Z,62.80
2022-09-21T09:51:36.701Z,63.90
2022-09-21T09:54:05.831Z,64.90
2022-09-21T09:56:36.428Z,65.30
2022-09-21T09:59:14.808Z,66.00
2022-09-21T10:01:44.431Z,66.30
2022-09-21T10:04:14.115Z,67.00
2022-09-21T10:06:46.171Z,67.30
2022-09-21T10:09:32.674Z,66.90
2022-09-21T10:12:20.744Z,66.70
2022-09-21T10:14:53.065Z,67.00
2022-09-21T10:17:24.423Z,66.90
2022-09-21T10:20:08.054Z,67.40
2022-09-21T10:22:35.057Z,67.00
2022-09-21T10:25:06.211Z,66.20
2022-09-21T10:27:42.802Z,65.00
2022-09-21T10:30:29.615Z,64.20
2022-09-21T10:33:01.595Z,62.30
2022-09-21T10:35:28.575Z,60.80
2022-09-21T10:38:22.438Z,59.70
2022-09-21T10:40:53.443Z,57.20
2022-09-21T10:43:43.795Z,55.70
2022-09-21T10:46:14.460Z,51.80
2022-09-21T10:48:45.962Z,49.10
2022-09-21T10:51:27.441Z,46.50
2022-09-21T10:53:57.344Z,45.50
2022-09-21T10:56:24.595Z,43.40
2022-09-21T10:59:21.935Z,44.10
2022-09-21T11:01:54.029Z,44.60
2022-09-21T11:04:28.279Z,45.90
2022-09-21T11:07:05.458Z,47.00
2022-09-21T11:09:57.176Z,43.50
2022-09-21T11:12:54.551Z,43.30
2022-09-21T11:15:28.908Z,44.10
2022-09-21T11:18:13.922Z,42.70
2022-09-21T11:20:51.220Z,42.30
2022-09-21T11:23:41.570Z,39.60
2022-09-21T11:26:40.766Z,42.00
2022-09-21T11:29:17.609Z,39.80
2022-09-21T11:32:11.384Z,39.60
2022-09-21T11:34:41.143Z,39.00
2022-09-21T11:37:25.473Z,39.50
2022-09-21T11:40:27.121Z,39.10
2022-09-21T11:43:32.436Z,39.90
2022-09-21T11:46:11.238Z,40.90
2022-09-21T11:49:11.060Z,41.00
2022-09-21T11:52:11.714Z,41.60
2022-09-21T11:55:00.646Z,41.50
2022-09-21T11:57:33.930Z,40.00
2022-09-21T12:00:11.596Z,39.00
2022-09-21T12:03:05.791Z,38.50
2022-09-21T12:05:38.424Z,38.00
2022-09-21T12:08:18.606Z,37.80
2022-09-21T12:10:57.275Z,37.40
2022-09-21T12:13:29.793Z,38.60
2022-09-21T12:16:15.273Z,40.80
2022-09-21T12:18:55.405Z,41.30
2022-09-21T12:21:35.123Z,41.90
2022-09-21T12:24:13.760Z,41.70
2022-09-21T12:26:49.122Z,41.60
2022-09-21T12:29:25.310Z,41.20
2022-09-21T12:32:07.257Z,41.40
2022-09-21T12:34:49.458Z,41.20
2022-09-21T12:37:28.043Z,38.60
2022-09-21T12:40:28.356Z,33.40
2022-09-21T12:43:16.378Z,25.50
2022-09-21T12:45:51.217Z,16.00
2022-09-21T12:48:34.639Z,18.50
2022-09-21T12:51:36.724Z,22.40
2022-09-21T12:54:17.527Z,27.60
2022-09-21T12:56:52.642Z,29.00
2022-09-21T12:59:50.163Z,29.00
2022-09-21T13:02:29.350Z,30.60
2022-09-21T13:05:17.660Z,30.10
2022-09-21T13:08:14.121Z,26.70
2022-09-21T13:10:54.741Z,17.90
2022-09-21T13:13:38.466Z,20.90
2022-09-21T13:16:25.845Z,14.30
2022-09-21T13:19:03.705Z,4.90
2022-09-21T13:21:32.951Z,1.00
2022-09-21T13:24:04.920Z,1.00
2022-09-21T13:26:35.977Z,1.00
2022-09-21T13:29:17.468Z,1.00
2022-09-21T13:31:59.959Z,1.00
2022-09-21T13:34:36.001Z,1.00
2022-09-21T13:37:15.113Z,1.00
2022-09-21T13:39:57.394Z,1.00
2022-09-21T13:42:33.749Z,1.00
2022-09-21T13:45:13.863Z,1.00
2022-09-21T13:47:42.969Z,6.80
2022-09-21T13:50:39.237Z,4.50
2022-09-21T13:53:23.736Z,1.00
2022-09-21T13:55:53.977Z,1.00
2022-09-21T13:58:32.882Z,1.00
2022-09-21T14:01:42.453Z,1.00
2022-09-21T14:04:27.976Z,1.00
2022-09-21T14:07:02.911Z,1.00
2022-09-21T14:09:37.928Z,1.00
2022-09-21T14:12:09.197Z,1.00
2022-09-21T14:14:37.661Z,1.00
2022-09-21T14:17:34.711Z,1.00
2022-09-21T14:20:02.314Z,1.00
2022-09-21T14:22:29.734Z,1.00
2022-09-21T14:25:24.418Z,1.00
2022-09-21T14:27:53.551Z,1.00
2022-09-21T14:30:24.298Z,1.00
2022-09-21T14:33:10.857Z,1.00
2022-09-21T14:35:41.282Z,2.40
2022-09-21T14:38:21.611Z,8.80
2022-09-21T14:40:57.375Z,13.50
2022-09-21T14:43:34.201Z,16.60
2022-09-21T14:46:13.383Z,17.70
2022-09-21T14:48:59.189Z,17.30
2022-09-21T14:52:04.321Z,17.70
2022-09-21T14:54:52.701Z,20.10
2022-09-21T14:57:45.635Z,23.60
2022-09-21T15:00:26.337Z,25.00
2022-09-21T15:03:28.685Z,25.30
2022-09-21T15:06:24.220Z,25.90
2022-09-21T15:09:45.676Z,27.60
2022-09-21T15:12:27.652Z,27.70
2022-09-21T15:15:03.351Z,28.60
2022-09-21T15:17:32.792Z,29.70
2022-09-21T15:20:01.038Z,30.80
2022-09-21T15:22:28.772Z,31.10
2022-09-21T15:25:03.986Z,30.80
2022-09-21T15:27:33.238Z,32.00
2022-09-21T15:30:04.744Z,30.90
2022-09-21T15:32:48.710Z,32.10
2022-09-21T15:35:21.396Z,30.60
2022-09-21T15:37:51.702Z,28.30
2022-09-21T15:40:23.343Z,28.50
2022-09-21T15:43:11.341Z,29.30
2022-09-21T15:45:46.951Z,30.50
2022-09-21T15:48:22.044Z,29.20
2022-09-21T15:50:59.333Z,29.70
2022-09-21T15:53:31.918Z,29.60
2022-09-21T15:56:01.523Z,30.00
2022-09-21T15:58:38.406Z,30.30
2022-09-21T16:01:17.801Z,30.60
2022-09-21T16:03:47.977Z,30.90
2022-09-21T16:06:31.032Z,28.50
2022-09-21T16:08:57.751Z,29.00
2022-09-21T16:11:26.929Z,30.30
2022-09-21T16:14:27.481Z,30.80
2022-09-21T16:17:16.869Z,32.10
2022-09-21T16:19:53.908Z,33.00
2022-09-21T16:22:29.578Z,32.70
2022-09-21T16:24:59.701Z,33.00
2022-09-21T16:27:34.223Z,33.90
2022-09-21T16:30:01.233Z,34.80
2022-09-21T16:32:29.944Z,35.20
2022-09-21T16:35:29.328Z,35.90
2022-09-21T16:37:58.949Z,35.70
2022-09-21T16:40:28.818Z,36.00
2022-09-21T16:42:56.681Z,36.80
2022-09-21T16:45:31.673Z,37.00
2022-09-21T16:47:59.629Z,37.20
2022-09-21T16:50:26.671Z,37.20
2022-09-21T16:52:53.486Z,37.60
2022-09-21T16:55:25.537Z,37.60
2022-09-21T16:57:55.247Z,37.50
2022-09-21T17:00:22.351Z,38.00
2022-09-21T17:02:49.613Z,38.00
2022-09-21T17:05:19.657Z,38.30
2022-09-21T17:07:55.403Z,39.20
2022-09-21T17:10:30.929Z,39.30
2022-09-21T17:13:00.299Z,39.60
2022-09-21T17:15:28.502Z,40.10
2022-09-21T17:17:58.907Z,40.20
2022-09-21T17:20:32.913Z,40.80
2022-09-21T17:23:01.267Z,40.90
2022-09-21T17:25:29.968Z,41.10
2022-09-21T17:27:59.628Z,41.50
2022-09-21T17:30:28.255Z,41.80
2022-09-21T17:32:55.789Z,42.10
2022-09-21T17:35:30.567Z,42.30
2022-09-21T17:38:01.081Z,42.90
2022-09-21T17:40:29.845Z,42.90
2022-09-21T17:43:17.887Z,43.40
2022-09-21T17:45:52.012Z,44.10
2022-09-21T17:48:21.305Z,44.20
2022-09-21T17:50:49.712Z,44.20
2022-09-21T17:53:37.172Z,44.20
2022-09-21T17:56:36.219Z,44.60
2022-09-21T17:59:05.760Z,45.10
2022-09-21T18:01:36.201Z,45.10
2022-09-21T18:04:04.189Z,45.50
2022-09-21T18:06:34.389Z,46.20
2022-09-21T18:09:01.874Z,46.70
2022-09-21T18:11:40.902Z,46.90
2022-09-21T18:14:39.975Z,47.20
2022-09-21T18:17:12.962Z,47.70
2022-09-21T18:20:04.220Z,48.10
2022-09-21T18:22:54.434Z,48.50
2022-09-21T18:25:47.555Z,48.60
2022-09-21T18:28:58.021Z,49.20
2022-09-21T18:31:42.077Z,49.50
2022-09-21T18:34:23.831Z,49.80
2022-09-21T18:37:02.394Z,50.00
2022-09-21T18:39:45.278Z,49.70
2022-09-21T18:42:30.684Z,49.70
2022-09-21T18:45:10.865Z,49.80
2022-09-21T18:47:37.790Z,49.50
2022-09-21T18:50:20.911Z,48.90
2022-09-21T18:53:01.438Z,48.60
2022-09-21T18:55:33.309Z,48.80
2022-09-21T18:58:01.346Z,48.60
2022-09-21T19:00:35.055Z,48.60
2022-09-21T19:03:23.627Z,48.60
2022-09-21T19:06:28.470Z,48.60
2022-09-21T19:09:20.043Z,48.60
2022-09-21T19:12:15.982Z,48.50
2022-09-21T19:14:45.708Z,48.50
2022-09-21T19:17:40.391Z,48.90
2022-09-21T19:20:23.942Z,49.10
2022-09-21T19:23:12.061Z,49.60
2022-09-21T19:25:45.834Z,50.10
2022-09-21T19:28:17.869Z,50.80
2022-09-21T19:30:49.282Z,51.20
2022-09-21T19:33:49.478Z,51.20
2022-09-21T19:36:17.680Z,51.40
2022-09-21T19:38:44.759Z,51.90
2022-09-21T19:41:29.627Z,52.90
2022-09-21T19:44:09.114Z,52.80
2022-09-21T19:46:56.167Z,52.80
2022-09-21T19:49:33.520Z,53.20
2022-09-21T19:52:04.938Z,53.60
2022-09-21T19:54:50.606Z,54.00
2022-09-21T19:57:40.765Z,54.50
2022-09-21T20:00:13.689Z,55.10
2022-09-21T20:02:45.484Z,55.30
2022-09-21T20:05:28.815Z,56.10
2022-09-21T20:08:16.251Z,57.10
2022-09-21T20:10:57.288Z,57.90
2022-09-21T20:13:32.958Z,58.30
2022-09-21T20:16:31.626Z,58.90
2022-09-21T20:19:11.143Z,59.10
2022-09-21T20:21:43.754Z,59.40
2022-09-21T20:24:26.955Z,59.50
2022-09-21T20:26:54.189Z,60.30
2022-09-21T20:29:22.015Z,61.70
2022-09-21T20:31:52.271Z,61.60
2022-09-21T20:34:19.763Z,61.50
2022-09-21T20:36:49.107Z,61.60
2022-09-21T20:39:18.114Z,61.90
2022-09-21T20:41:47.163Z,62.20
2022-09-21T20:44:14.191Z,62.60
2022-09-21T20:46:43.237Z,63.10
2022-09-21T20:49:15.374Z,62.90
2022-09-21T20:51:42.409Z,63.70
2022-09-21T20:54:09.301Z,63.40
2022-09-21T20:56:38.699Z,64.00
2022-09-21T20:59:09.983Z,63.60
2022-09-21T21:01:37.296Z,63.10
2022-09-21T21:04:04.321Z,63.30
2022-09-21T21:06:31.277Z,62.70
2022-09-21T21:09:00.446Z,62.40
2022-09-21T21:11:28.107Z,62.40
2022-09-21T21:13:56.111Z,62.30
2022-09-21T21:16:22.936Z,62.30
2022-09-21T21:18:55.270Z,63.00
2022-09-21T21:21:26.627Z,64.30
2022-09-21T21:24:14.716Z,63.50
2022-09-21T21:27:01.167Z,64.00
2022-09-21T21:29:28.358Z,63.80
2022-09-21T21:31:58.120Z,64.30
2022-09-21T21:34:28.907Z,64.90
2022-09-21T21:36:56.083Z,64.60
2022-09-21T21:39:23.028Z,64.90
2022-09-21T21:41:49.760Z,64.80
2022-09-21T21:44:16.744Z,64.40
2022-09-21T21:46:43.683Z,64.40
2022-09-21T21:49:10.441Z,64.20
2022-09-21T21:51:37.306Z,64.00
2022-09-21T21:54:04.276Z,63.80
2022-09-21T21:56:31.355Z,63.70
2022-09-21T21:59:00.731Z,63.70
2022-09-21T22:01:31.657Z,63.70
2022-09-21T22:04:01.550Z,63.70
2022-09-21T22:06:32.879Z,63.90
2022-09-21T22:09:03.010Z,64.70
2022-09-21T22:11:32.501Z,64.00
2022-09-21T22:14:01.330Z,64.00
2022-09-21T22:16:32.960Z,64.20
2022-09-21T22:19:03.079Z,64.30
2022-09-21T22:21:34.862Z,64.30
2022-09-21T22:24:04.665Z,64.30
2022-09-21T22:26:37.647Z,64.40
2022-09-21T22:29:09.496Z,64.60
2022-09-21T22:31:39.498Z,64.70
2022-09-21T22:34:06.539Z,64.90
2022-09-21T22:36:37.561Z,65.00
2022-09-21T22:39:06.822Z,65.20
2022-09-21T22:41:38.871Z,65.20
2022-09-21T22:44:06.086Z,65.30
2022-09-21T22:46:33.330Z,65.40
2022-09-21T22:49:00.655Z,65.60
2022-09-21T22:51:28.605Z,65.70
2022-09-21T22:53:58.461Z,65.70
2022-09-21T22:56:30.098Z,66.00
2022-09-21T22:59:04.527Z,66.20
2022-09-21T23:01:39.366Z,66.70
2022-09-21T23:04:11.802Z,68.00
2022-09-21T23:06:46.195Z,67.50
2022-09-21T23:09:16.689Z,67.90
2022-09-21T23:11:47.472Z,68.20
2022-09-21T23:14:16.227Z,68.60
2022-09-21T23:16:43.680Z,68.70
2022-09-21T23:19:21.027Z,68.80
2022-09-21T23:21:50.175Z,68.80
2022-09-21T23:24:17.893Z,68.80
2022-09-21T23:26:45.665Z,69.60
2022-09-21T23:29:15.056Z,69.70
2022-09-21T23:31:45.581Z,69.10
2022-09-21T23:34:14.020Z,69.00
2022-09-21T23:36:43.851Z,69.10
2022-09-21T23:39:15.203Z,69.20
2022-09-21T23:41:42.486Z,69.30
2022-09-21T23:44:09.630Z,69.40
2022-09-21T23:46:38.163Z,69.50
2022-09-21T23:49:05.630Z,69.60
2022-09-21T23:51:34.567Z,69.60
2022-09-21T23:54:01.973Z,69.70
2022-09-21T23:56:31.788Z,69.80
2022-09-21T23:58:59.290Z,70.20
